LEPA/PMI METAR and TAF weather

Enter ICAO airport designator
Station Type Date Time Source
LEPA METAR 2021/02/25 01:30 UTC NOAA

LEPA 250130Z 06001KT 9999 FEW020 08/08 Q1032 NOSIG


Station Type Date Time Source
LEPA Decoded METAR 2021/02/25 01:30 UTC NOAA

Palma De Mallorca / Son San Juan, Spain (LEPA) 39-33N 002-44E 8M
Feb 24, 2021 - 08:30 PM EST / 2021.02.25 0130 UTC
Wind: from the ENE (060 degrees) at 1 MPH (1 KT):0
Visibility: greater than 7 mile(s):0
Sky conditions: mostly clear
Temperature: 46 F (8 C)
Dew Point: 46 F (8 C)
Relative Humidity: 100%
Pressure (altimeter): 30.47 in. Hg (1032 hPa)
ob: LEPA 250130Z 06001KT 9999 FEW020 08/08 Q1032 NOSIG
cycle: 1

Station Type Date Time Source
LEPA TAF 2021/02/24 18:27 UTC NOAA

TAF LEPA 241700Z 2418/2518 06005KT 9999 BKN020 TX19/2512Z TN07/2506Z PROB40
TEMPO 2421/2508 3000 BR BKN012
BECMG 2511/2513 23008KT

Example: see airport list